createdAt,value
2023-03-21T00:02:39.657Z,505.00
2023-03-21T00:06:38.620Z,505.00
2023-03-21T00:10:43.664Z,506.00
2023-03-21T00:14:39.520Z,509.00
2023-03-21T00:18:38.546Z,502.00
2023-03-21T00:22:38.432Z,503.00
2023-03-21T00:26:38.475Z,506.00
2023-03-21T00:30:38.350Z,502.00
2023-03-21T00:34:43.223Z,503.00
2023-03-21T00:38:40.793Z,504.00
2023-03-21T00:42:38.473Z,509.00
2023-03-21T00:46:51.687Z,504.00
2023-03-21T00:50:39.471Z,507.00
2023-03-21T00:54:38.486Z,505.00
2023-03-21T00:58:38.427Z,507.00
2023-03-21T01:02:38.327Z,506.00
2023-03-21T01:06:38.303Z,511.00
2023-03-21T01:10:38.450Z,505.00
2023-03-21T01:14:38.422Z,506.00
2023-03-21T01:18:38.468Z,500.00
2023-03-21T01:22:38.533Z,504.00
2023-03-21T01:26:38.771Z,504.00
2023-03-21T01:30:42.032Z,505.00
2023-03-21T01:34:38.860Z,509.00
2023-03-21T01:38:38.581Z,504.00
2023-03-21T01:42:38.499Z,507.00
2023-03-21T01:47:09.864Z,500.00
2023-03-21T01:50:39.429Z,501.00
2023-03-21T01:54:39.307Z,507.00
2023-03-21T01:58:38.355Z,507.00
2023-03-21T02:02:38.354Z,511.00
2023-03-21T02:06:38.296Z,508.00
2023-03-21T02:10:38.433Z,506.00
2023-03-21T02:14:38.542Z,506.00
2023-03-21T02:18:38.597Z,506.00
2023-03-21T02:22:39.308Z,502.00
2023-03-21T02:26:42.340Z,506.00
2023-03-21T02:30:50.898Z,506.00
2023-03-21T02:34:39.713Z,506.00
2023-03-21T02:38:38.788Z,503.00
2023-03-21T02:42:38.613Z,503.00
2023-03-21T02:46:45.389Z,502.00
2023-03-21T02:50:39.585Z,507.00
2023-03-21T02:54:47.512Z,500.00
2023-03-21T02:58:39.567Z,501.00
2023-03-21T03:02:38.450Z,504.00
2023-03-21T03:06:38.448Z,510.00
2023-03-21T03:10:38.703Z,503.00
2023-03-21T03:15:00.278Z,508.00
2023-03-21T03:18:39.436Z,507.00
2023-03-21T03:22:38.385Z,502.00
2023-03-21T03:26:38.306Z,505.00
2023-03-21T03:30:44.725Z,507.00
2023-03-21T03:34:39.277Z,506.00
2023-03-21T03:38:38.266Z,508.00
2023-03-21T03:42:38.192Z,504.00
2023-03-21T03:46:38.258Z,505.00
2023-03-21T03:50:38.481Z,503.00
2023-03-21T03:54:38.364Z,508.00
2023-03-21T03:58:45.261Z,506.00
2023-03-21T04:02:39.433Z,508.00
2023-03-21T04:06:38.334Z,504.00
2023-03-21T04:10:38.582Z,503.00
2023-03-21T04:14:44.350Z,506.00
2023-03-21T04:18:39.275Z,502.00
2023-03-21T04:22:38.180Z,505.00
2023-03-21T04:26:38.142Z,505.00
2023-03-21T04:30:38.691Z,505.00
2023-03-21T04:34:38.192Z,507.00
2023-03-21T04:38:38.270Z,507.00
2023-03-21T04:42:38.392Z,506.00
2023-03-21T04:46:38.463Z,506.00
2023-03-21T04:50:38.756Z,500.00
2023-03-21T04:54:38.785Z,504.00
2023-03-21T04:58:38.787Z,505.00
2023-03-21T05:02:38.904Z,508.00
2023-03-21T05:06:39.043Z,508.00
2023-03-21T05:10:39.157Z,505.00
2023-03-21T05:14:39.283Z,506.00
2023-03-21T05:18:39.410Z,506.00
2023-03-21T05:22:39.536Z,502.00
2023-03-21T05:26:39.614Z,509.00
2023-03-21T05:30:39.718Z,511.00
2023-03-21T05:34:39.764Z,513.00
2023-03-21T05:38:39.792Z,514.00
2023-03-21T05:42:39.739Z,512.00
2023-03-21T05:46:39.750Z,518.00
2023-03-21T05:50:39.686Z,515.00
2023-03-21T05:54:39.729Z,512.00
2023-03-21T05:58:39.738Z,519.00
2023-03-21T06:02:39.756Z,514.00
2023-03-21T06:06:39.796Z,509.00
2023-03-21T06:10:40.192Z,507.00
2023-03-21T06:14:39.983Z,507.00
2023-03-21T06:18:39.908Z,511.00
2023-03-21T06:22:40.944Z,508.00
2023-03-21T06:26:40.159Z,500.00
2023-03-21T06:30:40.298Z,505.00
2023-03-21T06:34:40.579Z,505.00
2023-03-21T06:38:40.350Z,520.00
2023-03-21T06:42:40.225Z,542.00
2023-03-21T06:46:40.217Z,550.00
2023-03-21T06:50:40.263Z,572.00
2023-03-21T06:54:40.127Z,595.00
2023-03-21T06:58:40.455Z,591.00
2023-03-21T07:02:40.160Z,553.00
2023-03-21T07:06:40.059Z,543.00
2023-03-21T07:10:40.436Z,559.00
2023-03-21T07:14:39.956Z,584.00
2023-03-21T07:18:40.004Z,500.00
2023-03-21T07:22:41.028Z,502.00
2023-03-21T07:26:39.854Z,509.00
2023-03-21T07:30:39.955Z,501.00
2023-03-21T07:34:39.857Z,500.00
2023-03-21T07:38:39.777Z,520.00
2023-03-21T07:42:40.617Z,505.00
2023-03-21T07:46:39.735Z,503.00
2023-03-21T07:50:39.878Z,502.00
2023-03-21T07:54:40.081Z,535.00
2023-03-21T07:58:40.034Z,592.00
2023-03-21T08:02:40.272Z,626.00
2023-03-21T08:06:40.344Z,682.00
2023-03-21T08:10:40.327Z,746.00
2023-03-21T08:14:40.442Z,805.00
2023-03-21T08:18:40.363Z,871.00
2023-03-21T08:22:40.345Z,921.00
2023-03-21T08:26:40.229Z,869.00
2023-03-21T08:30:40.248Z,901.00
2023-03-21T08:34:40.433Z,841.00
2023-03-21T08:38:40.842Z,704.00
2023-03-21T08:42:40.124Z,628.00
2023-03-21T08:46:40.180Z,590.00
2023-03-21T08:50:40.049Z,565.00
2023-03-21T08:54:40.017Z,575.00
2023-03-21T08:58:40.022Z,584.00
2023-03-21T09:02:40.001Z,575.00
2023-03-21T09:06:39.956Z,554.00
2023-03-21T09:10:39.862Z,556.00
2023-03-21T09:14:40.083Z,522.00
2023-03-21T09:18:39.824Z,525.00
2023-03-21T09:22:42.469Z,515.00
2023-03-21T09:26:39.909Z,539.00
2023-03-21T09:30:39.872Z,533.00
2023-03-21T09:34:39.745Z,507.00
2023-03-21T09:38:44.370Z,582.00
2023-03-21T09:42:39.713Z,671.00
2023-03-21T09:46:39.802Z,749.00
2023-03-21T09:50:39.614Z,636.00
2023-03-21T09:54:39.571Z,581.00
2023-03-21T09:58:39.528Z,568.00
2023-03-21T10:02:41.877Z,541.00
2023-03-21T10:06:40.006Z,539.00
2023-03-21T10:10:40.290Z,533.00
2023-03-21T10:14:42.000Z,507.00
2023-03-21T10:18:40.099Z,503.00
2023-03-21T10:22:40.229Z,524.00
2023-03-21T10:26:40.212Z,500.00
2023-03-21T10:30:40.591Z,507.00
2023-03-21T10:34:40.393Z,535.00
2023-03-21T10:38:40.515Z,556.00
2023-03-21T10:42:40.576Z,565.00
2023-03-21T10:46:40.709Z,580.00
2023-03-21T10:50:40.607Z,590.00
2023-03-21T10:54:41.553Z,602.00
2023-03-21T10:58:40.591Z,600.00
2023-03-21T11:02:40.545Z,604.00
2023-03-21T11:06:40.540Z,616.00
2023-03-21T11:10:40.633Z,620.00
2023-03-21T11:14:40.600Z,621.00
2023-03-21T11:18:40.598Z,622.00
2023-03-21T11:22:40.663Z,628.00
2023-03-21T11:26:40.550Z,631.00
2023-03-21T11:30:40.650Z,636.00
2023-03-21T11:34:40.594Z,666.00
2023-03-21T11:38:40.800Z,721.00
2023-03-21T11:42:40.748Z,774.00
2023-03-21T11:46:40.746Z,806.00
2023-03-21T11:50:40.677Z,832.00
2023-03-21T11:54:40.634Z,824.00
2023-03-21T11:58:40.677Z,829.00
2023-03-21T12:02:40.560Z,864.00
2023-03-21T12:06:41.087Z,900.00
2023-03-21T12:10:40.985Z,926.00
2023-03-21T12:14:40.374Z,991.00
2023-03-21T12:18:44.439Z,984.00
2023-03-21T12:22:40.772Z,970.00
2023-03-21T12:26:40.359Z,961.00
2023-03-21T12:30:40.394Z,926.00
2023-03-21T12:34:41.077Z,918.00
2023-03-21T12:38:40.233Z,908.00
2023-03-21T12:42:40.245Z,897.00
2023-03-21T12:46:40.688Z,871.00
2023-03-21T12:50:40.609Z,869.00
2023-03-21T12:54:41.566Z,861.00
2023-03-21T12:58:42.995Z,851.00
2023-03-21T13:02:41.019Z,841.00
2023-03-21T13:06:41.016Z,828.00
2023-03-21T13:10:41.070Z,816.00
2023-03-21T13:14:40.935Z,828.00
2023-03-21T13:18:41.008Z,871.00
2023-03-21T13:22:41.164Z,862.00
2023-03-21T13:26:41.247Z,858.00
2023-03-21T13:30:41.317Z,840.00
2023-03-21T13:34:40.986Z,847.00
2023-03-21T13:38:40.923Z,850.00
2023-03-21T13:42:40.860Z,837.00
2023-03-21T13:46:52.912Z,821.00
2023-03-21T13:50:41.916Z,826.00
2023-03-21T13:54:40.832Z,814.00
2023-03-21T13:58:40.848Z,808.00
2023-03-21T14:02:40.725Z,803.00
2023-03-21T14:06:40.795Z,797.00
2023-03-21T14:10:41.755Z,800.00
2023-03-21T14:14:40.627Z,801.00
2023-03-21T14:18:53.575Z,790.00
2023-03-21T14:22:41.674Z,786.00
2023-03-21T14:26:40.511Z,770.00
2023-03-21T14:30:40.800Z,788.00
2023-03-21T14:34:41.676Z,777.00
2023-03-21T14:38:40.451Z,764.00
2023-03-21T14:42:40.397Z,750.00
2023-03-21T14:46:40.329Z,746.00
2023-03-21T14:50:40.271Z,742.00
2023-03-21T14:54:40.329Z,741.00
2023-03-21T14:58:40.276Z,743.00
2023-03-21T15:02:40.244Z,726.00
2023-03-21T15:06:40.158Z,732.00
2023-03-21T15:10:40.166Z,718.00
2023-03-21T15:14:40.063Z,715.00
2023-03-21T15:18:39.977Z,711.00
2023-03-21T15:22:39.943Z,702.00
2023-03-21T15:26:40.002Z,692.00
2023-03-21T15:30:39.897Z,703.00
2023-03-21T15:34:39.862Z,700.00
2023-03-21T15:38:39.932Z,695.00
2023-03-21T15:42:39.891Z,694.00
2023-03-21T15:46:39.784Z,687.00
2023-03-21T15:50:39.938Z,675.00
2023-03-21T15:54:39.728Z,674.00
2023-03-21T15:58:39.777Z,666.00
2023-03-21T16:02:39.675Z,663.00
2023-03-21T16:06:39.724Z,665.00
2023-03-21T16:10:39.751Z,661.00
2023-03-21T16:14:39.648Z,654.00
2023-03-21T16:18:39.700Z,652.00
2023-03-21T16:22:39.715Z,652.00
2023-03-21T16:26:39.935Z,651.00
2023-03-21T16:30:40.253Z,652.00
2023-03-21T16:34:40.147Z,650.00
2023-03-21T16:38:40.231Z,642.00
2023-03-21T16:42:40.433Z,645.00
2023-03-21T16:46:40.560Z,647.00
2023-03-21T16:50:41.099Z,642.00
2023-03-21T16:54:40.758Z,643.00
2023-03-21T16:58:40.939Z,644.00
2023-03-21T17:02:41.687Z,640.00
2023-03-21T17:06:41.246Z,639.00
2023-03-21T17:10:41.541Z,639.00
2023-03-21T17:14:41.584Z,631.00
2023-03-21T17:18:41.790Z,634.00
2023-03-21T17:22:41.964Z,633.00
2023-03-21T17:26:42.136Z,628.00
2023-03-21T17:30:42.620Z,633.00
2023-03-21T17:34:42.485Z,641.00
2023-03-21T17:38:42.627Z,645.00
2023-03-21T17:42:42.777Z,655.00
2023-03-21T17:46:43.089Z,681.00
2023-03-21T17:50:43.188Z,651.00
2023-03-21T17:54:43.377Z,761.00
2023-03-21T17:58:43.463Z,714.00
2023-03-21T18:02:43.591Z,722.00
2023-03-21T18:06:43.802Z,720.00
2023-03-21T18:10:43.998Z,729.00
2023-03-21T18:14:44.183Z,708.00
2023-03-21T18:18:44.545Z,698.00
2023-03-21T18:22:44.537Z,689.00
2023-03-21T18:26:44.796Z,692.00
2023-03-21T18:31:00.719Z,686.00
2023-03-21T18:34:45.878Z,667.00
2023-03-21T18:38:44.917Z,673.00
2023-03-21T18:43:32.718Z,665.00
2023-03-21T18:46:46.041Z,659.00
2023-03-21T18:50:45.022Z,655.00
2023-03-21T18:54:45.146Z,660.00
2023-03-21T18:58:45.185Z,651.00
2023-03-21T19:02:47.370Z,648.00
2023-03-21T19:06:45.126Z,651.00
2023-03-21T19:10:45.797Z,642.00
2023-03-21T19:14:45.010Z,645.00
2023-03-21T19:18:54.599Z,638.00
2023-03-21T19:22:45.976Z,641.00
2023-03-21T19:26:44.928Z,635.00
2023-03-21T19:30:50.225Z,634.00
2023-03-21T19:34:45.905Z,634.00
2023-03-21T19:38:44.903Z,629.00
2023-03-21T19:42:44.814Z,627.00
2023-03-21T19:46:44.786Z,624.00
2023-03-21T19:51:13.543Z,621.00
2023-03-21T19:54:45.729Z,624.00
2023-03-21T19:58:44.695Z,615.00
2023-03-21T20:02:44.716Z,613.00
2023-03-21T20:06:44.609Z,613.00
2023-03-21T20:10:44.574Z,606.00
2023-03-21T20:14:44.547Z,605.00
2023-03-21T20:18:44.517Z,610.00
2023-03-21T20:26:45.427Z,601.00
2023-03-21T20:30:44.474Z,594.00
2023-03-21T20:34:44.694Z,599.00
2023-03-21T20:38:44.648Z,600.00
2023-03-21T20:42:44.555Z,597.00
2023-03-21T20:46:44.533Z,595.00
2023-03-21T20:50:44.870Z,592.00
2023-03-21T20:54:44.428Z,584.00
2023-03-21T20:59:04.504Z,584.00
2023-03-21T21:02:45.384Z,585.00
2023-03-21T21:06:44.350Z,581.00
2023-03-21T21:11:09.692Z,582.00
2023-03-21T21:14:45.382Z,580.00
2023-03-21T21:18:44.245Z,578.00
2023-03-21T21:22:46.179Z,577.00
2023-03-21T21:26:45.379Z,570.00
2023-03-21T21:30:44.333Z,572.00
2023-03-21T21:34:44.341Z,568.00
2023-03-21T21:38:44.577Z,568.00
2023-03-21T21:42:44.712Z,566.00
2023-03-21T21:46:44.917Z,564.00
2023-03-21T21:50:45.173Z,560.00
2023-03-21T21:54:45.242Z,559.00
2023-03-21T21:58:45.196Z,560.00
2023-03-21T22:02:45.370Z,559.00
2023-03-21T22:06:45.845Z,551.00
2023-03-21T22:10:45.691Z,555.00
2023-03-21T22:14:45.795Z,549.00
2023-03-21T22:18:45.855Z,548.00
2023-03-21T22:22:45.949Z,549.00
2023-03-21T22:26:46.048Z,549.00
2023-03-21T22:30:46.038Z,547.00
2023-03-21T22:34:46.292Z,542.00
2023-03-21T22:38:46.415Z,543.00
2023-03-21T22:42:46.426Z,543.00
2023-03-21T22:46:46.501Z,538.00
2023-03-21T22:50:46.620Z,536.00
2023-03-21T22:54:46.695Z,536.00
2023-03-21T22:58:46.820Z,535.00
2023-03-21T23:02:46.942Z,538.00
2023-03-21T23:06:47.082Z,535.00
2023-03-21T23:10:47.295Z,527.00
2023-03-21T23:14:47.270Z,522.00
2023-03-21T23:18:47.443Z,527.00
2023-03-21T23:22:47.426Z,526.00
2023-03-21T23:26:47.457Z,524.00
2023-03-21T23:30:47.509Z,524.00
2023-03-21T23:34:47.493Z,527.00
2023-03-21T23:38:47.495Z,522.00
2023-03-21T23:42:47.468Z,514.00
2023-03-21T23:46:47.498Z,514.00
2023-03-21T23:50:47.429Z,518.00
2023-03-21T23:54:47.504Z,520.00
2023-03-21T23:58:47.425Z,515.00
